Amherst, South Dakota
Current Conditions -  °F | °C
As of 6:53 AM on Tuesday 21 Oct 2014 (Local Time) from KABR Reporting Station
Clear Clear  
Wind Chill: 44°   Ceiling: Unl
Heat Index: 49°   Visibility: 10mi
Dew Point: 38°   Wind: 12mph
Humidity: 66%   Direction: 130°SE
Pressure: 29.96"   Gusts: NA
Location:  45.74°N, 97.92°W
Report Text: KABR 211153Z AUTO 13010KT 10SM CLR 09/03 A2996 RMK AO2 SLP148 T00940033 10094 20056 56011
Loading
Personal Weather Stations






























Interactive Weather Map New forecast layout! Learn more

10-Day Weather Forecast

Advertisements
Track Severe Weather on mobile